createdAt,value
2022-10-31T00:01:41.813Z,11.26
2022-10-31T00:04:10.772Z,11.17
2022-10-31T00:06:39.737Z,11.20
2022-10-31T00:09:08.653Z,11.26
2022-10-31T00:11:37.630Z,11.14
2022-10-31T00:14:06.875Z,11.15
2022-10-31T00:16:37.221Z,11.34
2022-10-31T00:19:08.993Z,11.32
2022-10-31T00:21:37.963Z,11.33
2022-10-31T00:24:07.616Z,11.22
2022-10-31T00:26:36.600Z,11.14
2022-10-31T00:29:05.633Z,11.01
2022-10-31T00:31:35.893Z,11.11
2022-10-31T00:34:04.857Z,11.22
2022-10-31T00:36:33.765Z,11.26
2022-10-31T00:39:02.882Z,11.16
2022-10-31T00:41:31.823Z,11.09
2022-10-31T00:44:00.831Z,11.05
2022-10-31T00:46:30.012Z,11.00
2022-10-31T00:49:00.294Z,11.09
2022-10-31T00:51:29.348Z,11.10
2022-10-31T00:53:58.261Z,10.87
2022-10-31T00:56:27.235Z,10.70
2022-10-31T00:58:56.306Z,10.79
2022-10-31T01:01:25.349Z,10.50
2022-10-31T01:03:54.425Z,10.27
2022-10-31T01:06:25.582Z,10.53
2022-10-31T01:08:54.498Z,10.76
2022-10-31T01:11:24.884Z,10.71
2022-10-31T01:13:55.023Z,10.77
2022-10-31T01:16:26.859Z,10.78
2022-10-31T01:18:55.876Z,10.61
2022-10-31T01:21:27.996Z,10.65
2022-10-31T01:24:02.907Z,10.61
2022-10-31T01:26:33.747Z,10.61
2022-10-31T01:29:06.139Z,10.69
2022-10-31T01:31:38.204Z,10.84
2022-10-31T01:34:08.501Z,11.05
2022-10-31T01:36:40.571Z,10.81
2022-10-31T01:39:11.959Z,10.85
2022-10-31T01:41:43.041Z,10.97
2022-10-31T01:44:45.838Z,11.23
2022-10-31T01:47:19.404Z,11.11
2022-10-31T01:49:51.110Z,11.27
2022-10-31T01:52:26.111Z,11.17
2022-10-31T01:55:00.059Z,11.32
2022-10-31T01:57:30.833Z,11.26
2022-10-31T02:00:02.561Z,11.22
2022-10-31T02:02:43.642Z,11.27
2022-10-31T02:05:18.144Z,11.32
2022-10-31T02:07:55.388Z,11.33
2022-10-31T02:10:30.964Z,11.50
2022-10-31T02:13:03.465Z,11.68
2022-10-31T02:15:34.150Z,11.53
2022-10-31T02:18:03.833Z,11.61
2022-10-31T02:20:40.371Z,11.78
2022-10-31T02:23:54.621Z,11.78
2022-10-31T02:26:43.649Z,11.90
2022-10-31T02:29:51.860Z,11.76
2022-10-31T02:32:28.518Z,11.76
2022-10-31T02:35:05.621Z,11.85
2022-10-31T02:37:39.721Z,11.76
2022-10-31T02:40:17.458Z,11.91
2022-10-31T02:45:56.712Z,11.99
2022-10-31T02:48:30.418Z,11.99
2022-10-31T02:51:02.191Z,12.06
2022-10-31T02:53:35.081Z,12.14
2022-10-31T02:56:08.441Z,12.11
2022-10-31T02:58:41.971Z,12.05
2022-10-31T03:01:38.453Z,12.09
2022-10-31T03:04:31.127Z,12.05
2022-10-31T03:07:06.488Z,12.03
2022-10-31T03:09:44.103Z,12.04
2022-10-31T03:12:16.976Z,12.06
2022-10-31T03:14:55.240Z,11.97
2022-10-31T03:17:28.544Z,11.92
2022-10-31T03:20:02.812Z,11.96
2022-10-31T03:22:34.489Z,11.90
2022-10-31T03:25:06.519Z,11.85
2022-10-31T03:27:38.008Z,11.80
2022-10-31T03:30:09.102Z,11.91
2022-10-31T03:32:56.597Z,11.83
2022-10-31T03:35:29.455Z,11.69
2022-10-31T03:38:05.452Z,11.68
2022-10-31T03:40:39.485Z,11.65
2022-10-31T03:43:15.687Z,11.62
2022-10-31T03:45:48.508Z,11.54
2022-10-31T03:48:20.317Z,11.58
2022-10-31T03:50:55.635Z,11.52
2022-10-31T03:53:32.149Z,11.53
2022-10-31T03:56:06.089Z,11.53
2022-10-31T03:58:40.304Z,11.58
2022-10-31T04:01:13.730Z,11.56
2022-10-31T04:03:43.389Z,11.69
2022-10-31T04:06:18.878Z,11.76
2022-10-31T04:08:53.181Z,11.84
2022-10-31T04:11:26.990Z,11.81
2022-10-31T04:14:14.741Z,11.93
2022-10-31T04:16:45.664Z,11.97
2022-10-31T04:19:16.377Z,12.01
2022-10-31T04:21:46.665Z,12.00
2022-10-31T04:24:15.633Z,12.01
2022-10-31T04:26:44.524Z,12.11
2022-10-31T04:29:13.551Z,12.11
2022-10-31T04:31:42.518Z,12.13
2022-10-31T04:34:12.002Z,12.12
2022-10-31T04:36:41.116Z,12.15
2022-10-31T04:39:12.058Z,12.17
2022-10-31T04:41:46.758Z,12.18
2022-10-31T04:44:18.970Z,12.19
2022-10-31T04:46:51.913Z,12.20
2022-10-31T04:49:20.862Z,12.22
2022-10-31T04:51:49.956Z,12.21
2022-10-31T04:54:20.706Z,12.22
2022-10-31T04:57:18.372Z,12.20
2022-10-31T04:59:48.048Z,12.22
2022-10-31T05:02:17.180Z,12.23
2022-10-31T05:04:52.509Z,12.24
2022-10-31T05:07:21.468Z,12.24
2022-10-31T05:09:51.787Z,12.26
2022-10-31T05:12:22.159Z,12.25
2022-10-31T05:15:09.911Z,12.24
2022-10-31T05:17:58.174Z,12.25
2022-10-31T05:20:56.351Z,12.24
2022-10-31T05:23:51.459Z,12.25
2022-10-31T05:26:22.064Z,12.26
2022-10-31T05:28:50.979Z,12.26
2022-10-31T05:31:19.979Z,12.24
2022-10-31T05:33:50.361Z,12.24
2022-10-31T05:36:37.838Z,12.25
2022-10-31T05:39:13.985Z,12.24
2022-10-31T05:41:46.803Z,12.23
2022-10-31T05:44:24.398Z,12.24
2022-10-31T05:47:10.080Z,12.23
2022-10-31T05:50:12.001Z,12.24
2022-10-31T05:52:57.693Z,12.23
2022-10-31T05:55:34.990Z,12.21
2022-10-31T05:58:13.501Z,12.23
2022-10-31T06:00:47.371Z,12.22
2022-10-31T06:03:17.664Z,12.21
2022-10-31T06:05:58.287Z,12.19
2022-10-31T06:08:32.391Z,12.17
2022-10-31T06:11:05.731Z,12.18
2022-10-31T06:13:54.583Z,12.17
2022-10-31T06:16:33.271Z,12.18
2022-10-31T06:19:14.044Z,12.17
2022-10-31T06:21:43.279Z,12.18
2022-10-31T06:24:12.484Z,12.16
2022-10-31T06:27:00.980Z,12.15
2022-10-31T06:29:31.355Z,12.17
2022-10-31T06:32:05.637Z,12.16
2022-10-31T06:34:40.124Z,12.17
2022-10-31T06:37:10.936Z,12.17
2022-10-31T06:39:41.831Z,12.14
2022-10-31T06:42:13.085Z,12.13
2022-10-31T06:44:43.369Z,12.17
2022-10-31T06:47:50.832Z,12.14
2022-10-31T06:50:31.272Z,12.12
2022-10-31T06:53:01.177Z,12.20
2022-10-31T06:55:30.619Z,12.17
2022-10-31T06:58:03.246Z,12.17
2022-10-31T07:00:34.875Z,12.18
2022-10-31T07:03:09.206Z,12.09
2022-10-31T07:05:38.763Z,12.13
2022-10-31T07:08:09.722Z,12.11
2022-10-31T07:10:41.046Z,12.12
2022-10-31T07:13:14.043Z,12.15
2022-10-31T07:15:46.489Z,12.10
2022-10-31T07:18:15.868Z,12.11
2022-10-31T07:20:45.374Z,12.06
2022-10-31T07:23:15.615Z,12.10
2022-10-31T07:25:48.945Z,12.12
2022-10-31T07:28:22.122Z,12.07
2022-10-31T07:30:56.250Z,12.12
2022-10-31T07:33:26.936Z,12.06
2022-10-31T07:36:16.543Z,12.03
2022-10-31T07:38:47.637Z,12.07
2022-10-31T07:41:16.801Z,12.11
2022-10-31T07:43:47.404Z,12.15
2022-10-31T07:46:20.329Z,12.00
2022-10-31T07:49:07.947Z,12.04
2022-10-31T07:51:55.360Z,12.02
2022-10-31T07:54:26.854Z,12.04
2022-10-31T07:56:56.555Z,12.10
2022-10-31T07:59:26.704Z,12.13
2022-10-31T08:01:57.891Z,12.03
2022-10-31T08:04:49.496Z,12.12
2022-10-31T08:07:39.252Z,12.00
2022-10-31T08:10:14.030Z,11.98
2022-10-31T08:12:43.094Z,12.01
2022-10-31T08:15:12.533Z,12.05
2022-10-31T08:17:42.779Z,12.10
2022-10-31T08:20:13.480Z,12.10
2022-10-31T08:22:56.187Z,12.19
2022-10-31T08:25:25.687Z,12.24
2022-10-31T08:27:56.540Z,12.27
2022-10-31T08:30:31.955Z,12.27
2022-10-31T08:33:22.460Z,12.18
2022-10-31T08:36:10.379Z,12.22
2022-10-31T08:39:02.027Z,12.24
2022-10-31T08:41:32.237Z,12.33
2022-10-31T08:44:02.681Z,12.32
2022-10-31T08:46:32.622Z,12.37
2022-10-31T08:49:03.031Z,12.29
2022-10-31T08:51:32.047Z,12.25
2022-10-31T08:54:01.012Z,12.22
2022-10-31T08:56:36.163Z,12.17
2022-10-31T08:59:09.591Z,12.36
2022-10-31T09:02:09.638Z,12.48
2022-10-31T09:04:40.162Z,12.28
2022-10-31T09:07:24.545Z,12.37
2022-10-31T09:09:53.489Z,12.28
2022-10-31T09:12:22.598Z,12.39
2022-10-31T09:15:10.615Z,12.41
2022-10-31T09:17:49.568Z,12.47
2022-10-31T09:20:41.863Z,12.39
2022-10-31T09:23:13.902Z,12.43
2022-10-31T09:25:49.168Z,12.42
2022-10-31T09:28:36.275Z,12.51
2022-10-31T09:31:14.149Z,12.48
2022-10-31T09:33:57.533Z,12.30
2022-10-31T09:36:48.105Z,12.49
2022-10-31T09:39:21.540Z,12.59
2022-10-31T09:42:17.254Z,12.52
2022-10-31T09:44:57.877Z,12.63
2022-10-31T09:47:41.500Z,12.62
2022-10-31T09:50:44.274Z,12.46
2022-10-31T09:53:54.489Z,12.60
2022-10-31T09:56:27.625Z,12.64
2022-10-31T09:59:01.795Z,12.51
2022-10-31T10:01:48.303Z,12.68
2022-10-31T10:04:33.083Z,12.62
2022-10-31T10:07:40.842Z,12.65
2022-10-31T10:10:39.815Z,12.69
2022-10-31T10:13:33.399Z,12.52
2022-10-31T10:16:21.963Z,12.44
2022-10-31T10:19:03.764Z,12.60
2022-10-31T10:21:45.583Z,12.80
2022-10-31T10:24:31.999Z,12.87
2022-10-31T10:27:19.205Z,12.82
2022-10-31T10:30:00.084Z,12.56
2022-10-31T10:32:31.752Z,12.65
2022-10-31T10:35:04.685Z,12.81
2022-10-31T10:37:37.877Z,12.80
2022-10-31T10:40:15.255Z,12.90
2022-10-31T10:43:10.049Z,12.61
2022-10-31T10:45:58.127Z,12.78
2022-10-31T10:48:38.837Z,12.87
2022-10-31T10:51:25.618Z,12.81
2022-10-31T10:54:15.685Z,12.75
2022-10-31T10:56:56.319Z,12.92
2022-10-31T10:59:27.292Z,13.03
2022-10-31T11:01:56.443Z,13.09
2022-10-31T11:04:33.689Z,13.14
2022-10-31T11:07:05.025Z,12.77
2022-10-31T11:09:34.704Z,13.16
2022-10-31T11:12:09.735Z,13.28
2022-10-31T11:14:47.682Z,13.34
2022-10-31T11:17:27.186Z,13.23
2022-10-31T11:20:05.398Z,13.53
2022-10-31T11:22:34.387Z,13.50
2022-10-31T11:25:13.545Z,13.67
2022-10-31T11:27:42.531Z,13.32
2022-10-31T11:30:16.132Z,13.45
2022-10-31T11:32:49.886Z,13.53
2022-10-31T11:35:21.696Z,13.76
2022-10-31T11:37:54.303Z,14.48
2022-10-31T11:40:26.275Z,15.71
2022-10-31T11:42:58.883Z,15.44
2022-10-31T11:45:34.899Z,14.73
2022-10-31T11:48:16.745Z,15.20
2022-10-31T11:50:51.665Z,14.99
2022-10-31T11:53:26.370Z,14.93
2022-10-31T11:56:06.646Z,15.26
2022-10-31T11:58:35.616Z,15.68
2022-10-31T12:01:06.138Z,14.87
2022-10-31T12:03:45.527Z,14.35
2022-10-31T12:06:20.509Z,14.00
2022-10-31T12:08:49.641Z,14.08
2022-10-31T12:11:37.183Z,13.99
2022-10-31T12:14:20.103Z,13.97
2022-10-31T12:16:57.892Z,14.19
2022-10-31T12:19:40.012Z,14.33
2022-10-31T12:22:18.958Z,14.24
2022-10-31T12:24:58.969Z,14.25
2022-10-31T12:27:41.288Z,14.21
2022-10-31T12:30:17.515Z,14.46
2022-10-31T12:33:04.385Z,14.54
2022-10-31T12:35:43.186Z,14.55
2022-10-31T12:38:34.959Z,14.25
2022-10-31T12:41:17.744Z,14.42
2022-10-31T12:43:52.965Z,14.40
2022-10-31T12:46:41.062Z,14.42
2022-10-31T12:49:23.873Z,15.13
2022-10-31T12:52:02.111Z,15.12
2022-10-31T12:54:54.606Z,15.04
2022-10-31T12:57:30.227Z,15.30
2022-10-31T13:00:03.924Z,15.03
2022-10-31T13:02:39.736Z,14.99
2022-10-31T13:05:19.714Z,14.99
2022-10-31T13:07:54.294Z,15.21
2022-10-31T13:10:27.641Z,15.28
2022-10-31T13:13:03.004Z,15.12
2022-10-31T13:15:42.239Z,14.69
2022-10-31T13:18:20.361Z,14.81
2022-10-31T13:20:55.528Z,15.03
2022-10-31T13:24:01.152Z,15.03
2022-10-31T13:26:38.856Z,14.82
2022-10-31T13:29:18.366Z,14.89
2022-10-31T13:31:47.538Z,14.82
2022-10-31T13:34:25.818Z,14.84
2022-10-31T13:37:03.848Z,14.74
2022-10-31T13:39:46.884Z,14.78
2022-10-31T13:42:21.413Z,14.42
2022-10-31T13:44:50.375Z,14.47
2022-10-31T13:47:28.367Z,14.46
2022-10-31T13:50:08.429Z,14.67
2022-10-31T13:52:38.774Z,14.92
2022-10-31T13:55:40.690Z,15.08
2022-10-31T13:58:24.915Z,14.86
2022-10-31T14:01:18.130Z,14.76
2022-10-31T14:04:06.080Z,14.67
2022-10-31T14:06:42.826Z,14.47
2022-10-31T14:09:30.395Z,14.33
2022-10-31T14:12:03.053Z,14.28
2022-10-31T14:14:37.692Z,14.39
2022-10-31T14:17:07.582Z,14.21
2022-10-31T14:19:36.569Z,14.24
2022-10-31T14:22:05.464Z,14.28
2022-10-31T14:24:38.648Z,14.31
2022-10-31T14:27:34.718Z,14.30
2022-10-31T14:30:17.749Z,14.14
2022-10-31T14:32:46.944Z,14.08
2022-10-31T14:35:21.325Z,13.93
2022-10-31T14:38:13.297Z,13.88
2022-10-31T14:40:55.366Z,13.86
2022-10-31T14:43:52.099Z,13.81
2022-10-31T14:46:44.475Z,13.57
2022-10-31T14:49:33.481Z,13.42
2022-10-31T14:52:03.262Z,13.45
2022-10-31T14:54:37.127Z,13.48
2022-10-31T14:57:15.534Z,13.50
2022-10-31T14:59:50.184Z,13.42
2022-10-31T15:02:25.699Z,13.42
2022-10-31T15:04:57.179Z,13.35
2022-10-31T15:07:27.777Z,13.27
2022-10-31T15:10:01.081Z,13.27
2022-10-31T15:12:34.222Z,13.23
2022-10-31T15:15:16.006Z,13.22
2022-10-31T15:17:49.941Z,13.17
2022-10-31T15:20:21.949Z,13.08
2022-10-31T15:22:51.413Z,13.01
2022-10-31T15:25:22.479Z,12.89
2022-10-31T15:27:54.563Z,12.87
2022-10-31T15:30:25.656Z,12.87
2022-10-31T15:32:58.829Z,12.86
2022-10-31T15:35:30.327Z,12.82
2022-10-31T15:38:02.443Z,12.77
2022-10-31T15:40:31.980Z,12.69
2022-10-31T15:43:05.118Z,12.71
2022-10-31T15:45:34.448Z,12.67
2022-10-31T15:48:05.997Z,12.65
2022-10-31T15:50:41.456Z,12.61
2022-10-31T15:53:19.232Z,12.53
2022-10-31T15:55:51.920Z,12.46
2022-10-31T15:58:22.878Z,12.38
2022-10-31T16:01:01.390Z,12.44
2022-10-31T16:03:32.355Z,12.36
2022-10-31T16:06:04.515Z,12.27
2022-10-31T16:08:37.936Z,12.22
2022-10-31T16:11:23.571Z,12.15
2022-10-31T16:13:59.908Z,12.07
2022-10-31T16:16:37.379Z,12.05
2022-10-31T16:19:14.278Z,12.00
2022-10-31T16:21:43.723Z,11.88
2022-10-31T16:24:20.546Z,11.86
2022-10-31T16:26:51.883Z,11.78
2022-10-31T16:29:43.911Z,11.77
2022-10-31T16:32:32.426Z,11.71
2022-10-31T16:35:27.269Z,11.69
2022-10-31T16:37:56.560Z,11.70
2022-10-31T16:40:26.812Z,11.72
2022-10-31T16:42:58.778Z,11.66
2022-10-31T16:45:31.535Z,11.71
2022-10-31T16:48:12.382Z,11.72
2022-10-31T16:50:41.350Z,11.71
2022-10-31T16:53:14.551Z,11.71
2022-10-31T16:55:47.144Z,11.73
2022-10-31T16:58:23.591Z,11.72
2022-10-31T17:00:54.695Z,11.76
2022-10-31T17:03:24.135Z,11.75
2022-10-31T17:05:53.130Z,11.75
2022-10-31T17:08:22.071Z,11.81
2022-10-31T17:10:54.235Z,11.80
2022-10-31T17:13:26.014Z,11.83
2022-10-31T17:15:58.436Z,11.83
2022-10-31T17:18:28.108Z,11.84
2022-10-31T17:20:59.996Z,11.89
2022-10-31T17:23:30.349Z,11.90
2022-10-31T17:25:59.466Z,11.87
2022-10-31T17:28:28.474Z,11.89
2022-10-31T17:30:59.219Z,11.91
2022-10-31T17:33:28.523Z,11.90
2022-10-31T17:35:57.560Z,11.92
2022-10-31T17:38:26.491Z,11.93
2022-10-31T17:40:55.457Z,11.93
2022-10-31T17:43:26.982Z,11.93
2022-10-31T17:45:55.911Z,11.91
2022-10-31T17:48:26.295Z,11.89
2022-10-31T17:50:55.387Z,11.89
2022-10-31T17:53:24.299Z,11.89
2022-10-31T17:55:53.199Z,11.91
2022-10-31T17:58:22.190Z,11.92
2022-10-31T18:00:51.527Z,11.91
2022-10-31T18:03:20.511Z,11.91
2022-10-31T18:05:58.734Z,11.91
2022-10-31T18:08:28.925Z,11.87
2022-10-31T18:10:59.849Z,11.84
2022-10-31T18:13:29.386Z,11.84
2022-10-31T18:15:58.322Z,11.84
2022-10-31T18:18:27.283Z,11.88
2022-10-31T18:21:00.036Z,11.90
2022-10-31T18:23:29.067Z,11.95
2022-10-31T18:25:58.023Z,11.98
2022-10-31T18:28:27.032Z,12.00
2022-10-31T18:30:56.004Z,12.01
2022-10-31T18:33:24.912Z,12.05
2022-10-31T18:35:53.835Z,12.10
2022-10-31T18:38:24.456Z,11.98
2022-10-31T18:40:53.436Z,12.01
2022-10-31T18:43:22.424Z,12.01
2022-10-31T18:45:56.740Z,12.06
2022-10-31T18:48:28.283Z,12.08
2022-10-31T18:50:58.028Z,12.09
2022-10-31T18:53:28.399Z,12.11
2022-10-31T18:55:57.436Z,12.07
2022-10-31T18:58:26.505Z,12.09
2022-10-31T19:00:55.902Z,12.06
2022-10-31T19:03:26.232Z,12.09
2022-10-31T19:05:56.896Z,12.10
2022-10-31T19:10:57.411Z,12.10
2022-10-31T19:13:26.343Z,12.11
2022-10-31T19:15:55.281Z,12.11
2022-10-31T19:18:24.236Z,12.14
2022-10-31T19:20:53.223Z,12.16
2022-10-31T19:23:22.161Z,12.16
2022-10-31T19:25:52.650Z,12.17
2022-10-31T19:28:21.652Z,12.12
2022-10-31T19:30:55.190Z,12.10
2022-10-31T19:33:27.839Z,12.09
2022-10-31T19:36:01.229Z,12.11
2022-10-31T19:38:30.614Z,12.11
2022-10-31T19:41:03.081Z,12.06
2022-10-31T19:43:32.106Z,12.07
2022-10-31T19:46:03.584Z,12.07
2022-10-31T19:48:32.979Z,12.05
2022-10-31T19:51:03.196Z,12.02
2022-10-31T19:53:32.567Z,11.95
2022-10-31T19:56:03.373Z,11.93
2022-10-31T19:58:34.292Z,11.89
2022-10-31T20:01:08.714Z,11.91
2022-10-31T20:03:39.871Z,11.89
2022-10-31T20:06:15.007Z,11.86
2022-10-31T20:08:43.987Z,11.82
2022-10-31T20:11:14.386Z,11.81
2022-10-31T20:13:43.602Z,11.76
2022-10-31T20:16:14.465Z,11.77
2022-10-31T20:18:43.773Z,11.77
2022-10-31T20:21:16.705Z,11.75
2022-10-31T20:23:46.956Z,11.74
2022-10-31T20:26:19.153Z,11.75
2022-10-31T20:28:49.037Z,11.71
2022-10-31T20:31:20.928Z,11.66
2022-10-31T20:33:50.593Z,11.57
2022-10-31T20:36:20.985Z,11.60
2022-10-31T20:38:50.792Z,11.56
2022-10-31T20:41:21.403Z,11.52
2022-10-31T20:43:50.328Z,11.43
2022-10-31T20:46:21.163Z,11.44
2022-10-31T20:48:50.335Z,11.50
2022-10-31T20:51:21.342Z,11.44
2022-10-31T20:53:50.656Z,11.40
2022-10-31T20:56:22.693Z,11.46
2022-10-31T20:58:52.217Z,11.46
2022-10-31T21:01:23.467Z,11.48
2022-10-31T21:03:53.667Z,11.60
2022-10-31T21:06:23.682Z,11.65
2022-10-31T21:08:53.807Z,11.73
2022-10-31T21:11:25.483Z,11.73
2022-10-31T21:13:55.183Z,11.76
2022-10-31T21:16:26.499Z,11.82
2022-10-31T21:18:55.792Z,11.83
2022-10-31T21:21:29.011Z,11.85
2022-10-31T21:24:04.710Z,11.90
2022-10-31T21:26:37.793Z,11.90
2022-10-31T21:29:08.143Z,11.93
2022-10-31T21:31:38.376Z,11.96
2022-10-31T21:34:08.272Z,11.96
2022-10-31T21:36:37.268Z,11.98
2022-10-31T21:39:07.664Z,12.00
2022-10-31T21:41:38.224Z,12.01
2022-10-31T21:44:07.528Z,12.01
2022-10-31T21:46:38.486Z,12.03
2022-10-31T21:49:07.564Z,12.04
2022-10-31T21:51:37.712Z,12.06
2022-10-31T21:54:28.295Z,12.07
2022-10-31T21:57:00.211Z,12.10
2022-10-31T21:59:29.519Z,12.13
2022-10-31T22:02:00.515Z,12.15
2022-10-31T22:04:30.110Z,12.15
2022-10-31T22:06:59.055Z,12.17
2022-10-31T22:09:27.957Z,12.15
2022-10-31T22:11:59.745Z,12.17
2022-10-31T22:14:28.736Z,12.17
2022-10-31T22:16:57.741Z,12.19
2022-10-31T22:19:26.755Z,12.17
2022-10-31T22:21:55.631Z,12.15
2022-10-31T22:24:24.631Z,12.15
2022-10-31T22:26:53.575Z,12.16
2022-10-31T22:29:23.888Z,12.15
2022-10-31T22:31:57.330Z,12.13
2022-10-31T22:34:28.618Z,12.11
2022-10-31T22:36:57.790Z,12.10
2022-10-31T22:39:26.746Z,12.08
2022-10-31T22:41:55.721Z,12.09
2022-10-31T22:44:25.989Z,12.08
2022-10-31T22:46:54.926Z,12.08
2022-10-31T22:49:23.927Z,12.08
2022-10-31T22:51:53.087Z,12.09
2022-10-31T22:54:22.224Z,12.08
2022-10-31T22:56:51.173Z,12.07
2022-10-31T22:59:20.218Z,12.06
2022-10-31T23:01:50.558Z,12.09
2022-10-31T23:04:19.587Z,12.09
2022-10-31T23:06:49.148Z,12.08
2022-10-31T23:09:18.721Z,12.06
2022-10-31T23:11:47.914Z,12.05
2022-10-31T23:14:20.731Z,12.04
2022-10-31T23:16:53.416Z,12.07
2022-10-31T23:19:24.304Z,12.06
2022-10-31T23:21:55.873Z,12.04
2022-10-31T23:24:27.906Z,12.06
2022-10-31T23:27:09.750Z,12.05
2022-10-31T23:29:45.061Z,12.05
2022-10-31T23:32:18.506Z,12.04
2022-10-31T23:34:48.488Z,12.03
2022-10-31T23:37:18.782Z,12.05
2022-10-31T23:39:48.193Z,12.04
2022-10-31T23:42:18.627Z,12.03
2022-10-31T23:44:47.901Z,12.03
2022-10-31T23:47:18.769Z,12.04
2022-10-31T23:49:47.983Z,12.03
2022-10-31T23:52:17.347Z,12.02
2022-10-31T23:54:46.396Z,12.05
2022-10-31T23:57:17.020Z,12.05
2022-10-31T23:59:46.475Z,12.03
